createdAt,value
2022-09-28T06:10:42.692Z,99311.25
2022-09-28T06:13:21.132Z,99310.22
2022-09-28T06:15:58.058Z,99313.56
2022-09-28T06:18:36.648Z,99303.94
2022-09-28T06:21:19.086Z,99311.75
2022-09-28T06:23:57.252Z,99308.09
2022-09-28T06:26:37.109Z,99305.59
2022-09-28T06:29:20.014Z,99298.28
2022-09-28T06:31:58.034Z,99300.00
2022-09-28T06:34:35.583Z,99298.28
2022-09-28T06:37:12.405Z,99291.31
2022-09-28T06:39:49.504Z,99298.44
2022-09-28T06:42:28.808Z,99292.97
2022-09-28T06:45:33.565Z,99294.94
2022-09-28T06:48:28.410Z,99293.97
2022-09-28T06:51:06.701Z,99300.00
2022-09-28T06:53:49.584Z,99291.31
2022-09-28T06:56:40.621Z,99291.16
2022-09-28T06:59:20.604Z,99296.34
2022-09-28T07:01:58.381Z,99293.69
2022-09-28T07:04:53.645Z,99298.84
2022-09-28T07:07:51.275Z,99299.69
2022-09-28T07:10:56.542Z,99303.00
2022-09-28T07:13:56.240Z,99299.38
2022-09-28T07:17:06.888Z,99294.88
2022-09-28T07:19:33.075Z,99297.38
2022-09-28T07:22:09.810Z,99291.72
2022-09-28T07:24:47.041Z,99294.38
2022-09-28T07:27:42.386Z,99302.06
2022-09-28T07:30:39.238Z,99291.09
2022-09-28T07:33:33.787Z,99301.44
2022-09-28T07:36:25.120Z,99293.59
2022-09-28T07:39:03.318Z,99298.09
2022-09-28T07:41:39.971Z,99301.75
2022-09-28T07:44:19.338Z,99297.88
2022-09-28T07:46:59.161Z,99305.72
2022-09-28T07:50:08.214Z,99297.41
2022-09-28T07:52:53.498Z,99306.69
2022-09-28T07:55:38.878Z,99298.72
2022-09-28T07:58:22.647Z,99298.41
2022-09-28T08:01:15.337Z,99297.75
2022-09-28T08:03:56.604Z,99308.09
2022-09-28T08:06:36.628Z,99294.78
2022-09-28T08:09:15.776Z,99302.78
2022-09-28T08:12:21.880Z,99299.13
2022-09-28T08:15:17.813Z,99306.75
2022-09-28T08:18:02.699Z,99306.22
2022-09-28T08:20:53.358Z,99300.41
2022-09-28T08:23:32.784Z,99300.06
2022-09-28T08:26:15.180Z,99299.69
2022-09-28T08:28:53.495Z,99302.72
2022-09-28T08:32:02.901Z,99300.13
2022-09-28T08:34:46.432Z,99300.78
2022-09-28T08:37:26.294Z,99305.47
2022-09-28T08:40:27.962Z,99299.13
2022-09-28T08:43:52.791Z,99299.81
2022-09-28T08:46:40.712Z,99308.09
2022-09-28T08:49:42.330Z,99317.59
2022-09-28T08:52:42.991Z,99309.44
2022-09-28T08:55:55.361Z,99318.13
2022-09-28T08:58:37.402Z,99313.59
2022-09-28T09:01:21.067Z,99310.47
2022-09-28T09:03:58.022Z,99310.16
2022-09-28T09:07:13.623Z,99316.63
2022-09-28T09:10:08.398Z,99310.47
2022-09-28T09:12:57.615Z,99317.94
2022-09-28T09:15:50.941Z,99312.78
2022-09-28T09:18:57.732Z,99322.72
2022-09-28T09:22:00.856Z,99322.72
2022-09-28T09:24:48.553Z,99317.06
2022-09-28T09:27:54.423Z,99327.38
2022-09-28T09:30:40.973Z,99319.75
2022-09-28T09:33:49.674Z,99333.06
2022-09-28T09:37:14.253Z,99327.06
2022-09-28T09:40:36.332Z,99319.41
2022-09-28T09:44:10.608Z,99329.38
2022-09-28T09:47:06.526Z,99320.06
2022-09-28T09:50:05.362Z,99322.38
2022-09-28T09:52:56.112Z,99316.38
2022-09-28T09:55:37.524Z,99330.34
2022-09-28T09:58:39.323Z,99327.69
2022-09-28T10:01:41.969Z,99323.75
2022-09-28T10:04:39.600Z,99317.28
2022-09-28T10:07:30.544Z,99313.97
2022-09-28T10:10:14.863Z,99316.84
2022-09-28T10:12:58.923Z,99323.50
2022-09-28T10:15:39.337Z,99315.50
2022-09-28T10:18:26.673Z,99315.34
2022-09-28T10:21:25.644Z,99314.34
2022-09-28T10:24:09.420Z,99317.19
2022-09-28T10:26:50.667Z,99318.34
2022-09-28T10:29:30.160Z,99318.53
2022-09-28T10:32:24.320Z,99320.75
2022-09-28T10:35:27.473Z,99323.59
2022-09-28T10:38:11.134Z,99321.91
2022-09-28T10:41:17.019Z,99321.53
2022-09-28T10:44:12.368Z,99323.06
2022-09-28T10:47:03.852Z,99321.19
2022-09-28T10:49:48.792Z,99319.38
2022-09-28T10:52:46.973Z,99329.19
2022-09-28T10:55:43.932Z,99326.50
2022-09-28T10:58:31.823Z,99324.69
2022-09-28T11:01:13.906Z,99329.19
2022-09-28T11:03:59.312Z,99322.88
2022-09-28T11:06:43.530Z,99331.84
2022-09-28T11:09:33.880Z,99321.84
2022-09-28T11:12:21.113Z,99316.38
2022-09-28T11:15:04.241Z,99322.53
2022-09-28T11:17:44.535Z,99329.84
2022-09-28T11:20:37.230Z,99326.88
2022-09-28T11:23:29.779Z,99332.84
2022-09-28T11:26:18.470Z,99323.53
2022-09-28T11:28:57.092Z,99332.69
2022-09-28T11:31:46.962Z,99329.53
2022-09-28T11:34:57.472Z,99333.84
2022-09-28T11:38:07.881Z,99341.50
2022-09-28T11:41:47.385Z,99329.88
2022-09-28T11:44:45.421Z,99335.25
2022-09-28T11:47:48.923Z,99325.50
2022-09-28T11:50:48.902Z,99325.34
2022-09-28T11:53:34.171Z,99321.56
2022-09-28T11:56:31.870Z,99322.06
2022-09-28T11:59:15.854Z,99318.22
2022-09-28T12:02:00.891Z,99307.88
2022-09-28T12:05:21.157Z,99313.41
2022-09-28T12:08:05.609Z,99311.72
2022-09-28T12:11:13.954Z,99317.69
2022-09-28T12:14:29.649Z,99311.69
2022-09-28T12:17:20.117Z,99306.13
2022-09-28T12:20:05.854Z,99313.56
2022-09-28T12:22:49.416Z,99310.72
2022-09-28T12:25:28.193Z,99318.50
2022-09-28T12:28:09.582Z,99306.44
2022-09-28T12:30:51.120Z,99314.78
2022-09-28T12:33:28.209Z,99306.56
2022-09-28T12:36:18.501Z,99310.06
2022-09-28T12:39:40.826Z,99302.78
2022-09-28T12:42:36.909Z,99293.31
2022-09-28T12:46:06.689Z,99292.44
2022-09-28T12:52:32.822Z,99301.16
2022-09-28T12:55:34.311Z,99299.75
2022-09-28T12:58:32.076Z,99309.00
2022-09-28T13:01:29.136Z,99313.03
2022-09-28T13:05:02.194Z,99312.38
2022-09-28T13:07:50.250Z,99306.25
2022-09-28T13:10:34.809Z,99306.72
2022-09-28T13:13:34.371Z,99314.31
2022-09-28T13:16:21.818Z,99311.91
2022-09-28T13:19:06.789Z,99313.59
2022-09-28T13:21:58.360Z,99310.63
2022-09-28T13:24:42.144Z,99315.28
2022-09-28T13:27:21.071Z,99312.00
2022-09-28T13:30:01.315Z,99316.69
2022-09-28T13:32:40.949Z,99323.72
2022-09-28T13:35:20.780Z,99325.88
2022-09-28T13:38:52.620Z,99328.94
2022-09-28T13:41:35.750Z,99326.06
2022-09-28T13:44:45.560Z,99323.03
2022-09-28T13:47:42.513Z,99334.38
2022-09-28T13:50:30.850Z,99330.03
2022-09-28T13:53:22.331Z,99320.66
2022-09-28T13:56:19.622Z,99328.59
2022-09-28T13:59:03.481Z,99331.47
2022-09-28T14:01:43.590Z,99329.78
2022-09-28T14:04:23.370Z,99337.00
2022-09-28T14:07:12.489Z,99340.97
2022-09-28T14:09:50.851Z,99336.63
2022-09-28T14:12:52.632Z,99331.00
2022-09-28T14:15:51.666Z,99334.88
2022-09-28T14:18:35.041Z,99337.69
2022-09-28T14:21:49.362Z,99334.06
2022-09-28T14:24:48.188Z,99352.81
2022-09-28T14:28:09.286Z,99352.34
2022-09-28T14:30:53.909Z,99350.09
2022-09-28T14:33:33.914Z,99350.09
2022-09-28T14:36:45.288Z,99348.41
2022-09-28T14:39:42.813Z,99352.25
2022-09-28T14:42:23.961Z,99359.81
2022-09-28T14:45:43.341Z,99357.19
2022-09-28T14:48:45.370Z,99365.50
2022-09-28T14:52:07.193Z,99375.19
2022-09-28T14:54:57.730Z,99369.91
2022-09-28T14:57:36.228Z,99367.56
2022-09-28T15:00:23.472Z,99367.56
2022-09-28T15:03:12.026Z,99375.59
2022-09-28T15:05:51.063Z,99384.59
2022-09-28T15:08:40.951Z,99380.41
2022-09-28T15:11:21.386Z,99385.09
2022-09-28T15:14:11.724Z,99380.78
2022-09-28T15:16:48.645Z,99381.97
2022-09-28T15:19:39.778Z,99391.59
2022-09-28T15:22:20.402Z,99390.94
2022-09-28T15:25:02.946Z,99393.16
2022-09-28T15:27:43.442Z,99392.63
2022-09-28T15:30:29.828Z,99392.63
2022-09-28T15:33:20.332Z,99387.63
2022-09-28T15:36:04.477Z,99397.47
2022-09-28T15:38:41.412Z,99387.31
2022-09-28T15:41:18.563Z,99388.31
2022-09-28T15:44:29.427Z,99395.31
2022-09-28T15:47:14.041Z,99391.84
2022-09-28T15:50:00.372Z,99394.69
2022-09-28T15:52:47.578Z,99396.66
2022-09-28T15:55:30.541Z,99398.53
2022-09-28T15:58:20.011Z,99394.34
2022-09-28T16:01:36.832Z,99400.69
2022-09-28T16:04:50.800Z,99402.34
2022-09-28T16:07:38.751Z,99406.00
2022-09-28T16:10:54.192Z,99403.34
2022-09-28T16:13:31.080Z,99404.69
2022-09-28T16:16:08.698Z,99406.03
2022-09-28T16:18:52.121Z,99414.53
2022-09-28T16:21:45.324Z,99419.34
2022-09-28T16:24:28.071Z,99418.03
2022-09-28T16:27:10.602Z,99417.69
2022-09-28T16:29:47.402Z,99417.34
2022-09-28T16:32:59.681Z,99422.69
2022-09-28T16:35:53.713Z,99417.66
2022-09-28T16:38:31.385Z,99423.69
2022-09-28T16:41:09.115Z,99427.81
2022-09-28T16:43:49.852Z,99436.63
2022-09-28T16:46:31.414Z,99430.56
2022-09-28T16:49:10.141Z,99435.06
2022-09-28T16:51:46.811Z,99432.19
2022-09-28T16:54:38.681Z,99441.47
2022-09-28T16:57:18.391Z,99440.09
2022-09-28T16:59:58.118Z,99429.03
2022-09-28T17:02:46.393Z,99432.28
2022-09-28T17:05:25.428Z,99431.22
2022-09-28T17:08:06.732Z,99434.31
2022-09-28T17:11:13.076Z,99433.56
2022-09-28T17:13:46.175Z,99437.94
2022-09-28T17:17:06.095Z,99441.31
2022-09-28T17:19:30.151Z,99434.03
2022-09-28T17:22:08.269Z,99432.59
2022-09-28T17:24:45.898Z,99445.75
2022-09-28T17:27:24.190Z,99446.81
2022-09-28T17:30:02.072Z,99438.53
2022-09-28T17:32:45.290Z,99449.50
2022-09-28T17:35:24.705Z,99447.59
2022-09-28T17:38:03.612Z,99448.78
2022-09-28T17:40:40.697Z,99454.97
